createdAt,value
2022-11-17T00:00:09.391Z,1001.93
2022-11-17T00:01:09.366Z,1001.93
2022-11-17T00:02:09.347Z,1001.92
2022-11-17T00:03:09.376Z,1001.88
2022-11-17T00:04:09.250Z,1001.89
2022-11-17T00:05:10.025Z,1001.85
2022-11-17T00:06:09.175Z,1001.84
2022-11-17T00:07:09.164Z,1001.92
2022-11-17T00:08:09.180Z,1001.83
2022-11-17T00:09:09.134Z,1001.82
2022-11-17T00:10:09.036Z,1001.88
2022-11-17T00:11:09.024Z,1001.90
2022-11-17T00:12:08.962Z,1001.88
2022-11-17T00:13:08.926Z,1001.85
2022-11-17T00:14:08.943Z,1001.82
2022-11-17T00:15:08.854Z,1001.87
2022-11-17T00:16:08.815Z,1001.82
2022-11-17T00:17:08.777Z,1001.81
2022-11-17T00:18:08.746Z,1001.93
2022-11-17T00:19:08.733Z,1001.84
2022-11-17T00:20:08.723Z,1002.04
2022-11-17T00:21:08.638Z,1001.91
2022-11-17T00:22:08.607Z,1001.81
2022-11-17T00:23:08.565Z,1001.80
2022-11-17T00:24:08.596Z,1001.86
2022-11-17T00:25:08.539Z,1001.82
2022-11-17T00:26:08.457Z,1001.87
2022-11-17T00:27:08.416Z,1001.82
2022-11-17T00:28:08.382Z,1001.80
2022-11-17T00:29:08.357Z,1001.86
2022-11-17T00:30:08.378Z,1001.84
2022-11-17T00:31:08.276Z,1001.81
2022-11-17T00:32:08.239Z,1001.83
2022-11-17T00:33:08.214Z,1001.84
2022-11-17T00:34:08.157Z,1001.78
2022-11-17T00:35:08.124Z,1001.86
2022-11-17T00:36:08.181Z,1001.83
2022-11-17T00:37:08.058Z,1001.82
2022-11-17T00:38:08.020Z,1001.88
2022-11-17T00:39:07.979Z,1001.82
2022-11-17T00:40:08.008Z,1001.84
2022-11-17T00:41:08.093Z,1001.90
2022-11-17T00:42:08.325Z,1001.86
2022-11-17T00:43:08.011Z,1001.91
2022-11-17T00:44:07.987Z,1001.92
2022-11-17T00:45:08.006Z,1001.91
2022-11-17T00:46:07.910Z,1001.93
2022-11-17T00:47:07.696Z,1001.93
2022-11-17T00:48:07.728Z,1001.89
2022-11-17T00:49:07.623Z,1001.87
2022-11-17T00:50:07.598Z,1001.89
2022-11-17T00:51:07.636Z,1001.83
2022-11-17T00:52:07.512Z,1001.86
2022-11-17T00:53:07.473Z,1001.89
2022-11-17T00:54:07.523Z,1001.91
2022-11-17T00:55:07.450Z,1001.90
2022-11-17T00:56:07.365Z,1001.93
2022-11-17T00:57:07.347Z,1001.95
2022-11-17T00:58:07.290Z,1001.88
2022-11-17T00:59:07.258Z,1001.90
2022-11-17T01:00:07.287Z,1001.80
2022-11-17T01:01:07.217Z,1001.83
2022-11-17T01:02:07.145Z,1001.80
2022-11-17T01:03:07.129Z,1001.74
2022-11-17T01:04:07.080Z,1001.69
2022-11-17T01:05:07.093Z,1001.71
2022-11-17T01:06:07.000Z,1001.69
2022-11-17T01:07:07.086Z,1001.68
2022-11-17T01:08:06.929Z,1001.70
2022-11-17T01:09:06.896Z,1001.65
2022-11-17T01:10:06.860Z,1001.66
2022-11-17T01:11:06.820Z,1001.69
2022-11-17T01:12:06.848Z,1001.65
2022-11-17T01:13:06.848Z,1001.58
2022-11-17T01:14:06.712Z,1001.68
2022-11-17T01:15:06.684Z,1001.68
2022-11-17T01:16:06.767Z,1001.72
2022-11-17T01:17:06.602Z,1001.68
2022-11-17T01:18:06.570Z,1001.69
2022-11-17T01:19:06.587Z,1001.67
2022-11-17T01:20:06.491Z,1001.72
2022-11-17T01:21:06.462Z,1001.75
2022-11-17T01:22:06.416Z,1001.73
2022-11-17T01:23:06.379Z,1001.72
2022-11-17T01:24:06.402Z,1001.62
2022-11-17T01:25:06.313Z,1001.57
2022-11-17T01:26:07.042Z,1001.64
2022-11-17T01:27:06.237Z,1001.59
2022-11-17T01:28:06.270Z,1001.59
2022-11-17T01:29:06.216Z,1001.62
2022-11-17T01:30:06.144Z,1001.56
2022-11-17T01:31:06.100Z,1001.57
2022-11-17T01:32:06.056Z,1001.58
2022-11-17T01:33:06.020Z,1001.61
2022-11-17T01:34:06.037Z,1001.63
2022-11-17T01:35:05.949Z,1001.58
2022-11-17T01:36:05.929Z,1001.54
2022-11-17T01:37:05.873Z,1001.68
2022-11-17T01:38:05.837Z,1001.42
2022-11-17T01:39:05.900Z,1001.69
2022-11-17T01:40:05.765Z,1001.52
2022-11-17T01:41:05.730Z,1001.54
2022-11-17T01:42:05.695Z,1001.53
2022-11-17T01:43:05.656Z,1001.52
2022-11-17T01:44:05.761Z,1001.56
2022-11-17T01:45:05.583Z,1001.58
2022-11-17T01:46:05.545Z,1001.65
2022-11-17T01:47:05.512Z,1001.54
2022-11-17T01:48:05.475Z,1001.61
2022-11-17T01:49:05.437Z,1001.54
2022-11-17T01:50:05.471Z,1001.57
2022-11-17T01:51:05.364Z,1001.56
2022-11-17T01:52:05.325Z,1001.55
2022-11-17T01:53:05.291Z,1001.57
2022-11-17T01:54:05.255Z,1001.61
2022-11-17T01:55:05.218Z,1001.53
2022-11-17T01:56:05.246Z,1001.54
2022-11-17T01:57:05.144Z,1001.54
2022-11-17T01:58:05.109Z,1001.63
2022-11-17T01:59:05.071Z,1001.57
2022-11-17T02:00:05.034Z,1001.55
2022-11-17T02:01:04.998Z,1001.56
2022-11-17T02:02:05.049Z,1001.50
2022-11-17T02:03:04.928Z,1001.49
2022-11-17T02:04:04.890Z,1001.49
2022-11-17T02:05:04.851Z,1001.53
2022-11-17T02:06:04.819Z,1001.48
2022-11-17T02:07:04.901Z,1001.47
2022-11-17T02:08:04.740Z,1001.47
2022-11-17T02:09:04.712Z,1001.46
2022-11-17T02:10:04.671Z,1001.45
2022-11-17T02:11:04.632Z,1001.36
2022-11-17T02:12:04.596Z,1001.43
2022-11-17T02:13:04.630Z,1001.41
2022-11-17T02:14:04.525Z,1001.36
2022-11-17T02:15:04.487Z,1001.34
2022-11-17T02:16:04.522Z,1001.35
2022-11-17T02:17:11.474Z,1001.34
2022-11-17T02:18:04.374Z,1001.35
2022-11-17T02:19:04.393Z,1001.31
2022-11-17T02:20:04.304Z,1001.30
2022-11-17T02:21:04.276Z,1001.29
2022-11-17T02:22:04.284Z,1001.32
2022-11-17T02:23:05.113Z,1001.22
2022-11-17T02:24:04.161Z,1001.28
2022-11-17T02:25:04.125Z,1001.37
2022-11-17T02:26:04.084Z,1001.29
2022-11-17T02:27:04.108Z,1001.30
2022-11-17T02:28:04.011Z,1001.33
2022-11-17T02:29:03.973Z,1001.31
2022-11-17T02:30:03.940Z,1001.29
2022-11-17T02:31:03.904Z,1001.28
2022-11-17T02:32:03.987Z,1001.21
2022-11-17T02:33:03.840Z,1001.28
2022-11-17T02:34:03.797Z,1001.20
2022-11-17T02:35:03.762Z,1001.15
2022-11-17T02:36:03.723Z,1001.17
2022-11-17T02:37:03.755Z,1001.09
2022-11-17T02:38:03.649Z,1001.11
2022-11-17T02:39:03.629Z,1001.08
2022-11-17T02:40:03.575Z,1001.07
2022-11-17T02:41:03.537Z,1001.09
2022-11-17T02:42:03.501Z,1001.06
2022-11-17T02:43:03.528Z,1001.04
2022-11-17T02:44:03.428Z,1001.16
2022-11-17T02:45:03.393Z,1001.08
2022-11-17T02:46:03.364Z,1001.07
2022-11-17T02:47:03.322Z,1001.02
2022-11-17T02:48:03.413Z,1001.04
2022-11-17T02:49:03.271Z,1000.99
2022-11-17T02:50:03.216Z,1000.92
2022-11-17T02:51:03.173Z,1000.86
2022-11-17T02:52:03.131Z,1000.90
2022-11-17T02:53:03.186Z,1000.83
2022-11-17T02:54:03.072Z,1000.81
2022-11-17T02:55:03.043Z,1000.82
2022-11-17T02:56:02.987Z,1000.74
2022-11-17T02:57:02.975Z,1000.77
2022-11-17T02:58:02.918Z,1000.79
2022-11-17T02:59:02.936Z,1000.65
2022-11-17T03:00:02.838Z,1000.83
2022-11-17T03:01:02.807Z,1000.80
2022-11-17T03:02:02.820Z,1000.77
2022-11-17T03:03:02.736Z,1000.79
2022-11-17T03:04:02.830Z,1000.86
2022-11-17T03:05:02.653Z,1000.82
2022-11-17T03:06:02.616Z,1000.91
2022-11-17T03:07:02.662Z,1000.80
2022-11-17T03:08:02.548Z,1000.82
2022-11-17T03:09:02.508Z,1000.88
2022-11-17T03:10:02.531Z,1000.87
2022-11-17T03:11:02.436Z,1000.88
2022-11-17T03:12:02.403Z,1000.89
2022-11-17T03:13:02.373Z,1000.88
2022-11-17T03:14:02.348Z,1000.91
2022-11-17T03:15:02.341Z,1000.87
2022-11-17T03:16:02.251Z,1000.94
2022-11-17T03:17:02.221Z,1000.98
2022-11-17T03:18:02.253Z,1000.92
2022-11-17T03:19:02.144Z,1000.92
2022-11-17T03:20:02.215Z,1000.91
2022-11-17T03:21:02.104Z,1000.94
2022-11-17T03:22:02.036Z,1000.95
2022-11-17T03:23:02.072Z,1000.95
2022-11-17T03:24:01.964Z,1000.98
2022-11-17T03:25:01.990Z,1000.99
2022-11-17T03:26:01.890Z,1000.91
2022-11-17T03:27:01.857Z,1000.93
2022-11-17T03:28:01.868Z,1000.97
2022-11-17T03:29:01.792Z,1000.97
2022-11-17T03:30:01.788Z,1000.94
2022-11-17T03:31:01.757Z,1000.95
2022-11-17T03:32:01.667Z,1000.99
2022-11-17T03:33:01.630Z,1000.93
2022-11-17T03:34:01.593Z,1000.91
2022-11-17T03:35:01.558Z,1000.88
2022-11-17T03:36:01.645Z,1000.84
2022-11-17T03:37:01.490Z,1000.96
2022-11-17T03:38:02.056Z,1000.86
2022-11-17T03:39:01.414Z,1000.83
2022-11-17T03:40:01.370Z,1000.91
2022-11-17T03:41:01.401Z,1000.88
2022-11-17T03:42:01.298Z,1000.93
2022-11-17T03:43:01.266Z,1000.82
2022-11-17T03:44:01.229Z,1000.82
2022-11-17T03:45:01.192Z,1000.83
2022-11-17T03:46:01.210Z,1000.86
2022-11-17T03:47:01.109Z,1000.82
2022-11-17T03:48:01.085Z,1000.82
2022-11-17T03:49:01.045Z,1000.82
2022-11-17T03:50:01.008Z,1000.75
2022-11-17T03:51:01.043Z,1000.87
2022-11-17T03:52:01.000Z,1000.72
2022-11-17T03:53:00.903Z,1000.84
2022-11-17T03:54:00.863Z,1000.83
2022-11-17T03:55:00.828Z,1000.83
2022-11-17T03:56:00.788Z,1000.85
2022-11-17T03:57:00.812Z,1000.93
2022-11-17T03:58:00.714Z,1000.92
2022-11-17T03:59:00.679Z,1000.91
2022-11-17T04:00:00.660Z,1000.86
2022-11-17T04:01:00.606Z,1000.92
2022-11-17T04:02:00.791Z,1000.86
2022-11-17T04:03:00.532Z,1000.85
2022-11-17T04:04:00.511Z,1000.85
2022-11-17T04:05:00.460Z,1000.82
2022-11-17T04:06:00.426Z,1000.81
2022-11-17T04:07:00.706Z,1000.80
2022-11-17T04:08:00.436Z,1000.83
2022-11-17T04:09:00.312Z,1000.81
2022-11-17T04:10:00.280Z,1000.79
2022-11-17T04:11:00.247Z,1000.77
2022-11-17T04:12:00.260Z,1000.77
2022-11-17T04:13:00.168Z,1000.80
2022-11-17T04:14:00.177Z,1000.79
2022-11-17T04:15:00.107Z,1000.71
2022-11-17T04:16:00.054Z,1000.77
2022-11-17T04:17:00.119Z,1000.76
2022-11-17T04:18:00.022Z,1000.75
2022-11-17T04:18:59.968Z,1000.64
2022-11-17T04:19:59.918Z,1000.65
2022-11-17T04:20:59.889Z,1000.61
2022-11-17T04:21:59.842Z,1000.69
2022-11-17T04:22:59.865Z,1000.70
2022-11-17T04:23:59.845Z,1000.66
2022-11-17T04:24:59.729Z,1000.64
2022-11-17T04:25:59.688Z,1000.64
2022-11-17T04:26:59.735Z,1000.55
2022-11-17T04:27:59.670Z,1000.51
2022-11-17T04:28:59.584Z,1000.55
2022-11-17T04:29:59.549Z,1000.64
2022-11-17T04:30:59.510Z,1000.51
2022-11-17T04:31:59.472Z,1000.54
2022-11-17T04:32:59.494Z,1000.51
2022-11-17T04:33:59.397Z,1000.47
2022-11-17T04:34:59.366Z,1000.54
2022-11-17T04:35:59.326Z,1000.50
2022-11-17T04:37:03.931Z,1000.59
2022-11-17T04:37:59.332Z,1000.52
2022-11-17T04:38:59.216Z,1000.48
2022-11-17T04:39:59.176Z,1000.51
2022-11-17T04:40:59.148Z,1000.48
2022-11-17T04:41:59.110Z,1000.50
2022-11-17T04:42:59.074Z,1000.40
2022-11-17T04:43:59.111Z,1000.46
2022-11-17T04:44:58.998Z,1000.39
2022-11-17T04:45:58.963Z,1000.42
2022-11-17T04:46:58.928Z,1000.46
2022-11-17T04:47:58.907Z,1000.43
2022-11-17T04:48:58.859Z,1000.44
2022-11-17T04:49:59.679Z,1000.39
2022-11-17T04:50:58.781Z,1000.33
2022-11-17T04:51:58.739Z,1000.36
2022-11-17T04:52:58.708Z,1000.47
2022-11-17T04:53:58.669Z,1000.43
2022-11-17T04:54:58.637Z,1000.40
2022-11-17T04:55:58.655Z,1000.32
2022-11-17T04:56:58.563Z,1000.34
2022-11-17T04:57:58.523Z,1000.30
2022-11-17T04:58:58.516Z,1000.34
2022-11-17T04:59:58.475Z,1000.31
2022-11-17T05:00:58.412Z,1000.33
2022-11-17T05:02:04.203Z,1000.27
2022-11-17T05:02:58.343Z,1000.30
2022-11-17T05:03:58.303Z,1000.23
2022-11-17T05:04:59.176Z,1000.24
2022-11-17T05:05:58.227Z,1000.27
2022-11-17T05:06:58.224Z,1000.27
2022-11-17T05:07:58.220Z,1000.21
2022-11-17T05:08:58.118Z,1000.26
2022-11-17T05:09:58.093Z,1000.31
2022-11-17T05:10:58.089Z,1000.29
2022-11-17T05:11:58.097Z,1000.34
2022-11-17T05:12:57.982Z,1000.22
2022-11-17T05:13:58.002Z,1000.21
2022-11-17T05:14:57.898Z,1000.26
2022-11-17T05:15:57.894Z,1000.32
2022-11-17T05:16:57.830Z,1000.31
2022-11-17T05:17:57.798Z,1000.28
2022-11-17T05:18:57.758Z,1000.26
2022-11-17T05:19:57.774Z,1000.24
2022-11-17T05:20:57.681Z,1000.26
2022-11-17T05:21:57.650Z,1000.25
2022-11-17T05:23:00.273Z,1000.22
2022-11-17T05:23:57.601Z,1000.19
2022-11-17T05:24:57.845Z,1000.13
2022-11-17T05:25:57.499Z,1000.21
2022-11-17T05:26:57.463Z,1000.09
2022-11-17T05:27:57.427Z,1000.13
2022-11-17T05:28:57.393Z,1000.10
2022-11-17T05:29:57.366Z,1000.07
2022-11-17T05:30:57.384Z,1000.10
2022-11-17T05:31:57.284Z,1000.09
2022-11-17T05:32:57.245Z,1000.02
2022-11-17T05:33:57.209Z,1000.01
2022-11-17T05:34:57.174Z,1000.08
2022-11-17T05:35:57.140Z,1000.10
2022-11-17T05:36:57.161Z,1000.09
2022-11-17T05:37:57.575Z,1000.13
2022-11-17T05:38:57.027Z,1000.10
2022-11-17T05:39:57.056Z,1000.14
2022-11-17T05:40:56.954Z,1000.00
2022-11-17T05:41:56.912Z,1000.07
2022-11-17T05:42:57.277Z,1000.09
2022-11-17T05:43:56.914Z,1000.07
2022-11-17T05:44:56.904Z,1000.07
2022-11-17T05:45:56.767Z,999.95
2022-11-17T05:46:56.735Z,1000.00
2022-11-17T05:47:56.709Z,999.97
2022-11-17T05:48:56.658Z,999.89
2022-11-17T05:49:56.623Z,999.90
2022-11-17T05:50:56.652Z,999.90
2022-11-17T05:51:56.548Z,999.91
2022-11-17T05:52:56.519Z,999.97
2022-11-17T05:53:56.476Z,999.93
2022-11-17T05:54:56.443Z,999.89
2022-11-17T05:55:56.472Z,999.89
2022-11-17T05:56:56.365Z,999.97
2022-11-17T05:57:56.336Z,999.96
2022-11-17T05:58:56.297Z,999.92
2022-11-17T05:59:56.324Z,999.95
2022-11-17T06:00:56.224Z,999.95
2022-11-17T06:01:56.235Z,999.96
2022-11-17T06:02:56.216Z,999.94
2022-11-17T06:03:56.209Z,999.92
2022-11-17T06:04:56.082Z,1000.02
2022-11-17T06:05:56.038Z,999.90
2022-11-17T06:06:56.038Z,999.95
2022-11-17T06:07:55.965Z,999.86
2022-11-17T06:08:55.986Z,999.82
2022-11-17T06:09:55.892Z,999.82
2022-11-17T06:10:55.863Z,999.84
2022-11-17T06:11:58.609Z,999.88
2022-11-17T06:12:55.787Z,999.82
2022-11-17T06:13:55.748Z,999.78
2022-11-17T06:14:55.776Z,999.77
2022-11-17T06:15:55.792Z,999.84
2022-11-17T06:16:55.640Z,999.84
2022-11-17T06:17:55.606Z,999.79
2022-11-17T06:18:55.566Z,999.81
2022-11-17T06:19:55.547Z,999.81
2022-11-17T06:20:55.756Z,999.83
2022-11-17T06:22:11.615Z,999.86
2022-11-17T06:22:55.419Z,999.72
2022-11-17T06:23:55.454Z,999.79
2022-11-17T06:24:56.088Z,999.78
2022-11-17T06:25:55.358Z,999.71
2022-11-17T06:26:55.278Z,999.72
2022-11-17T06:27:55.239Z,999.64
2022-11-17T06:28:55.198Z,999.69
2022-11-17T06:29:55.162Z,999.65
2022-11-17T06:30:55.353Z,999.65
2022-11-17T06:31:55.088Z,999.57
2022-11-17T06:32:55.057Z,999.61
2022-11-17T06:33:55.023Z,999.65
2022-11-17T06:34:56.362Z,999.64
2022-11-17T06:35:54.944Z,999.65
2022-11-17T06:36:54.968Z,999.80
2022-11-17T06:37:54.890Z,999.72
2022-11-17T06:38:54.841Z,999.75
2022-11-17T06:39:54.799Z,999.73
2022-11-17T06:40:55.751Z,999.78
2022-11-17T06:41:54.725Z,999.78
2022-11-17T06:42:54.693Z,999.79
2022-11-17T06:43:54.682Z,999.78
2022-11-17T06:44:54.630Z,999.83
2022-11-17T06:45:54.660Z,999.76
2022-11-17T06:46:54.545Z,999.74
2022-11-17T06:47:54.579Z,999.66
2022-11-17T06:48:54.479Z,999.71
2022-11-17T06:49:54.437Z,999.67
2022-11-17T06:50:54.428Z,999.68
2022-11-17T06:51:54.422Z,999.70
2022-11-17T06:52:54.329Z,999.65
2022-11-17T06:53:54.289Z,999.68
2022-11-17T06:54:54.261Z,999.63
2022-11-17T06:55:54.226Z,999.69
2022-11-17T06:56:54.184Z,999.72
2022-11-17T06:57:54.202Z,999.78
2022-11-17T06:58:54.117Z,999.75
2022-11-17T06:59:54.082Z,999.75
2022-11-17T07:00:54.092Z,999.77
2022-11-17T07:01:54.005Z,999.77
2022-11-17T07:02:54.015Z,999.72
2022-11-17T07:03:54.010Z,999.75
2022-11-17T07:04:53.900Z,999.75
2022-11-17T07:05:53.872Z,999.71
2022-11-17T07:06:53.850Z,999.65
2022-11-17T07:07:53.790Z,999.73
2022-11-17T07:08:53.796Z,999.76
2022-11-17T07:09:53.712Z,999.73
2022-11-17T07:10:53.686Z,999.71
2022-11-17T07:11:53.639Z,999.61
2022-11-17T07:12:53.609Z,999.72
2022-11-17T07:13:53.607Z,999.71
2022-11-17T07:14:53.612Z,999.75
2022-11-17T07:15:53.492Z,999.79
2022-11-17T07:16:53.462Z,999.73
2022-11-17T07:17:53.420Z,999.75
2022-11-17T07:18:53.386Z,999.78
2022-11-17T07:19:53.421Z,999.77
2022-11-17T07:20:53.369Z,999.76
2022-11-17T07:21:53.275Z,999.75
2022-11-17T07:22:53.249Z,999.83
2022-11-17T07:23:53.260Z,999.78
2022-11-17T07:24:53.237Z,999.80
2022-11-17T07:25:53.141Z,999.76
2022-11-17T07:26:53.163Z,999.75
2022-11-17T07:27:53.063Z,999.70
2022-11-17T07:28:53.026Z,999.63
2022-11-17T07:29:52.985Z,999.57
2022-11-17T07:30:53.022Z,999.63
2022-11-17T07:31:52.917Z,999.67
2022-11-17T07:32:54.849Z,999.60
2022-11-17T07:33:52.848Z,999.60
2022-11-17T07:34:52.934Z,999.70
2022-11-17T07:35:52.839Z,999.58
2022-11-17T07:36:52.733Z,999.56
2022-11-17T07:37:52.783Z,999.60
2022-11-17T07:38:52.671Z,999.55
2022-11-17T07:39:52.621Z,999.48
2022-11-17T07:40:52.596Z,999.52
2022-11-17T07:41:52.615Z,999.56
2022-11-17T07:42:52.527Z,999.50
2022-11-17T07:43:52.483Z,999.39
2022-11-17T07:44:52.458Z,999.47
2022-11-17T07:45:52.452Z,999.50
2022-11-17T07:46:52.426Z,999.43
2022-11-17T07:47:52.345Z,999.41
2022-11-17T07:48:52.303Z,999.38
2022-11-17T07:49:52.270Z,999.43
2022-11-17T07:50:52.237Z,999.34
2022-11-17T07:51:52.330Z,999.42
2022-11-17T07:52:52.154Z,999.40
2022-11-17T07:53:52.120Z,999.38
2022-11-17T07:54:52.082Z,999.34
2022-11-17T07:55:52.072Z,999.36
2022-11-17T07:56:52.015Z,999.37
2022-11-17T07:57:52.033Z,999.32
2022-11-17T07:58:51.988Z,999.33
2022-11-17T07:59:51.906Z,999.32
2022-11-17T08:00:51.919Z,999.24
2022-11-17T08:01:51.847Z,999.26
2022-11-17T08:02:51.862Z,999.27
2022-11-17T08:03:51.812Z,999.27
2022-11-17T08:04:51.725Z,999.30
2022-11-17T08:05:51.700Z,999.20
2022-11-17T08:06:51.761Z,999.28
2022-11-17T08:07:51.695Z,999.30
2022-11-17T08:08:51.630Z,999.19
2022-11-17T08:09:51.546Z,999.23
2022-11-17T08:10:51.512Z,999.25
2022-11-17T08:11:51.469Z,999.28
2022-11-17T08:12:51.446Z,999.22
2022-11-17T08:13:51.397Z,999.24
2022-11-17T08:14:51.432Z,999.22
2022-11-17T08:15:51.332Z,999.20
2022-11-17T08:16:51.297Z,999.25
2022-11-17T08:17:51.269Z,999.23
2022-11-17T08:18:52.639Z,999.26
2022-11-17T08:19:51.191Z,999.22
2022-11-17T08:20:51.208Z,999.20
2022-11-17T08:21:51.144Z,999.25
2022-11-17T08:22:51.073Z,999.23
2022-11-17T08:23:51.106Z,999.29
2022-11-17T08:24:51.006Z,999.30
2022-11-17T08:25:51.029Z,999.30
2022-11-17T08:26:50.981Z,999.31
2022-11-17T08:27:50.903Z,999.36
2022-11-17T08:28:55.230Z,999.35
2022-11-17T08:29:50.835Z,999.33
2022-11-17T08:30:50.790Z,999.37
2022-11-17T08:31:50.753Z,999.37
2022-11-17T08:32:50.774Z,999.42
2022-11-17T08:33:50.681Z,999.37
2022-11-17T08:34:50.649Z,999.40
2022-11-17T08:35:50.609Z,999.32
2022-11-17T08:36:50.648Z,999.35
2022-11-17T08:37:50.539Z,999.32
2022-11-17T08:38:50.509Z,999.45
2022-11-17T08:39:50.478Z,999.22
2022-11-17T08:40:50.435Z,999.29
2022-11-17T08:41:50.396Z,999.36
2022-11-17T08:42:50.438Z,999.34
2022-11-17T08:43:50.338Z,999.35
2022-11-17T08:44:50.381Z,999.39
2022-11-17T08:45:50.247Z,999.40
2022-11-17T08:46:50.220Z,999.40
2022-11-17T08:47:50.183Z,999.45
2022-11-17T08:48:55.497Z,999.39
2022-11-17T08:49:50.105Z,999.37
2022-11-17T08:50:50.071Z,999.39
2022-11-17T08:51:50.057Z,999.35
2022-11-17T08:52:50.061Z,999.39
2022-11-17T08:53:49.966Z,999.28
2022-11-17T08:54:50.013Z,999.38
2022-11-17T08:55:49.918Z,999.36
2022-11-17T08:56:49.970Z,999.36
2022-11-17T08:57:49.896Z,999.36
2022-11-17T08:58:49.779Z,999.42
2022-11-17T08:59:49.749Z,999.40
2022-11-17T09:00:49.812Z,999.37
2022-11-17T09:01:49.681Z,999.36
2022-11-17T09:02:49.642Z,999.35
2022-11-17T09:03:49.621Z,999.39
2022-11-17T09:04:49.570Z,999.39
2022-11-17T09:05:49.602Z,999.41
2022-11-17T09:06:49.503Z,999.34
2022-11-17T09:07:49.596Z,999.43
2022-11-17T09:08:50.270Z,999.47
2022-11-17T09:09:49.392Z,999.56
2022-11-17T09:10:49.357Z,999.43
2022-11-17T09:11:49.432Z,999.37
2022-11-17T09:12:49.281Z,999.50
2022-11-17T09:13:49.265Z,999.52
2022-11-17T09:14:49.730Z,999.52
2022-11-17T09:15:49.205Z,999.47
2022-11-17T09:16:49.312Z,999.44
2022-11-17T09:17:49.221Z,999.52
2022-11-17T09:18:49.075Z,999.39
2022-11-17T09:19:49.123Z,999.39
2022-11-17T09:20:49.027Z,999.46
2022-11-17T09:21:48.970Z,999.19
2022-11-17T09:22:48.928Z,999.37
2022-11-17T09:23:48.895Z,999.34
2022-11-17T09:24:48.854Z,999.43
2022-11-17T09:25:48.868Z,999.53
2022-11-17T09:26:48.842Z,999.46
2022-11-17T09:27:48.767Z,999.55
2022-11-17T09:28:48.719Z,999.61
2022-11-17T09:29:48.674Z,999.58
2022-11-17T09:30:48.648Z,999.57
2022-11-17T09:31:48.716Z,999.63
2022-11-17T09:32:48.661Z,999.58
2022-11-17T09:33:48.537Z,999.53
2022-11-17T09:34:48.538Z,999.60
2022-11-17T09:35:48.470Z,999.51
2022-11-17T09:36:48.426Z,999.50
2022-11-17T09:37:48.387Z,999.55
2022-11-17T09:38:48.426Z,999.55
2022-11-17T09:39:48.329Z,999.46
2022-11-17T09:40:48.293Z,999.49
2022-11-17T09:41:48.265Z,999.55
2022-11-17T09:42:48.215Z,999.53
2022-11-17T09:43:48.256Z,999.39
2022-11-17T09:44:48.215Z,999.58
2022-11-17T09:45:48.105Z,999.52
2022-11-17T09:46:48.066Z,999.45
2022-11-17T09:47:48.032Z,999.50
2022-11-17T09:48:47.998Z,999.44
2022-11-17T09:49:50.002Z,999.45
2022-11-17T09:50:47.980Z,999.39
2022-11-17T09:51:47.927Z,999.39
2022-11-17T09:52:47.858Z,999.38
2022-11-17T09:53:47.817Z,999.27
2022-11-17T09:54:47.779Z,999.31
2022-11-17T09:55:48.727Z,999.25
2022-11-17T09:56:47.803Z,999.26
2022-11-17T09:57:47.670Z,999.26
2022-11-17T09:58:47.637Z,999.13
2022-11-17T09:59:47.673Z,999.08
2022-11-17T10:00:47.566Z,999.08
2022-11-17T10:01:47.556Z,999.13
2022-11-17T10:02:47.549Z,999.06
2022-11-17T10:03:47.887Z,999.04
2022-11-17T10:04:47.513Z,999.03
2022-11-17T10:05:47.393Z,999.01
2022-11-17T10:06:47.356Z,999.08
2022-11-17T10:07:47.329Z,998.99
2022-11-17T10:08:47.289Z,999.07
2022-11-17T10:09:47.309Z,999.00
2022-11-17T10:10:47.212Z,998.99
2022-11-17T10:11:47.188Z,998.95
2022-11-17T10:12:47.195Z,998.95
2022-11-17T10:13:47.106Z,998.94
2022-11-17T10:14:47.138Z,998.99
2022-11-17T10:15:47.033Z,998.95
2022-11-17T10:16:46.991Z,998.96
2022-11-17T10:17:46.960Z,998.82
2022-11-17T10:18:46.930Z,998.73
2022-11-17T10:19:46.969Z,998.85
2022-11-17T10:20:46.858Z,998.81
2022-11-17T10:21:46.828Z,998.86
2022-11-17T10:22:46.810Z,998.92
2022-11-17T10:23:47.758Z,998.88
2022-11-17T10:24:46.720Z,998.84
2022-11-17T10:25:46.726Z,998.88
2022-11-17T10:26:46.642Z,998.82
2022-11-17T10:27:46.602Z,998.85
2022-11-17T10:28:46.587Z,998.83
2022-11-17T10:29:46.596Z,998.81
2022-11-17T10:30:46.495Z,998.90
2022-11-17T10:31:46.581Z,998.91
2022-11-17T10:32:48.245Z,998.95
2022-11-17T10:33:46.426Z,998.86
2022-11-17T10:34:46.362Z,998.83
2022-11-17T10:35:46.332Z,998.90
2022-11-17T10:36:46.280Z,998.84
2022-11-17T10:37:46.319Z,998.89
2022-11-17T10:38:46.216Z,998.91
2022-11-17T10:39:46.181Z,998.87
2022-11-17T10:40:46.146Z,998.97
2022-11-17T10:41:46.100Z,998.88
2022-11-17T10:42:46.075Z,998.95
2022-11-17T10:43:53.163Z,998.87
2022-11-17T10:44:46.004Z,998.92
2022-11-17T10:45:46.040Z,998.91
2022-11-17T10:46:46.685Z,998.93
2022-11-17T10:47:45.980Z,998.87
2022-11-17T10:48:45.877Z,998.90
2022-11-17T10:49:45.818Z,998.88
2022-11-17T10:50:45.833Z,998.80
2022-11-17T10:51:45.753Z,998.83
2022-11-17T10:52:45.712Z,998.75
2022-11-17T10:53:47.143Z,998.81
2022-11-17T10:54:45.656Z,998.71
2022-11-17T10:55:45.683Z,998.69
2022-11-17T10:56:45.570Z,998.57
2022-11-17T10:57:45.536Z,998.58
2022-11-17T10:58:45.549Z,998.56
2022-11-17T10:59:45.479Z,998.72
2022-11-17T11:00:45.462Z,998.56
2022-11-17T11:01:45.507Z,998.56
2022-11-17T11:02:45.354Z,998.63
2022-11-17T11:03:45.371Z,998.58
2022-11-17T11:04:45.291Z,998.54
2022-11-17T11:05:45.248Z,998.50
2022-11-17T11:06:45.216Z,998.53
2022-11-17T11:07:45.186Z,998.56
2022-11-17T11:08:45.228Z,998.47
2022-11-17T11:09:45.102Z,998.55
2022-11-17T11:10:45.073Z,998.48
2022-11-17T11:11:45.045Z,998.40
2022-11-17T11:12:45.002Z,998.43
2022-11-17T11:13:44.967Z,998.38
2022-11-17T11:14:45.003Z,998.39
2022-11-17T11:15:44.900Z,998.42
2022-11-17T11:16:47.984Z,998.40
2022-11-17T11:17:44.824Z,998.38
2022-11-17T11:18:44.794Z,998.46
2022-11-17T11:19:44.747Z,998.44
2022-11-17T11:20:44.802Z,998.39
2022-11-17T11:21:44.680Z,998.39
2022-11-17T11:22:44.641Z,998.43
2022-11-17T11:23:44.640Z,998.40
2022-11-17T11:24:44.577Z,998.41
2022-11-17T11:25:44.535Z,998.47
2022-11-17T11:26:44.565Z,998.38
2022-11-17T11:27:44.478Z,998.48
2022-11-17T11:28:48.994Z,998.40
2022-11-17T11:29:44.398Z,998.52
2022-11-17T11:30:44.361Z,998.42
2022-11-17T11:31:44.337Z,998.35
2022-11-17T11:32:44.363Z,998.35
2022-11-17T11:33:44.255Z,998.38
2022-11-17T11:34:44.444Z,998.28
2022-11-17T11:35:44.177Z,998.40
2022-11-17T11:36:44.142Z,998.30
2022-11-17T11:37:44.179Z,998.21
2022-11-17T11:38:44.076Z,998.39
2022-11-17T11:39:44.040Z,998.54
2022-11-17T11:40:44.008Z,998.37
2022-11-17T11:41:43.973Z,998.21
2022-11-17T11:42:43.936Z,998.28
2022-11-17T11:43:43.957Z,998.29
2022-11-17T11:44:43.867Z,998.24
2022-11-17T11:45:43.824Z,998.18
2022-11-17T11:46:43.794Z,998.21
2022-11-17T11:47:43.760Z,998.26
2022-11-17T11:48:43.733Z,998.22
2022-11-17T11:49:43.725Z,998.36
2022-11-17T11:50:43.652Z,998.27
2022-11-17T11:51:43.659Z,998.30
2022-11-17T11:52:43.578Z,998.31
2022-11-17T11:53:43.549Z,998.24
2022-11-17T11:54:47.758Z,998.26
2022-11-17T11:55:43.499Z,998.21
2022-11-17T11:56:43.437Z,998.18
2022-11-17T11:57:43.474Z,998.19
2022-11-17T11:58:43.376Z,998.21
2022-11-17T11:59:43.326Z,998.16
2022-11-17T12:00:43.296Z,998.19
2022-11-17T12:01:43.258Z,998.18
2022-11-17T12:02:43.323Z,998.18
2022-11-17T12:03:43.264Z,998.17
2022-11-17T12:04:43.159Z,998.12
2022-11-17T12:05:43.114Z,998.11
2022-11-17T12:06:43.134Z,998.15
2022-11-17T12:07:43.153Z,998.15
2022-11-17T12:08:43.010Z,998.14
2022-11-17T12:09:42.977Z,998.13
2022-11-17T12:10:42.939Z,998.08
2022-11-17T12:11:42.976Z,998.07
2022-11-17T12:12:42.872Z,998.12
2022-11-17T12:13:48.427Z,998.02
2022-11-17T12:14:42.807Z,998.10
2022-11-17T12:15:42.765Z,998.01
2022-11-17T12:16:42.723Z,998.12